Time;durP1;ratioP1;P1;durP2;ratioP2;P2;SDS_P1;SDS_P2;PMS_P1;PMS_P2;Temp;Humidity;BMP_temperature;BMP_pressure;BME280_temperature;BME280_humidity;BME280_pressure;Samples;Min_cycle;Max_cycle;Signal;HPM_P1;HPM_P2
2021/09/09 00:02:07;;;;;;;9.27;8.00;;;;;;;17.10;100.00;100765.47;5082983;28;20214;-79
2021/09/09 00:04:37;;;;;;;8.90;8.10;;;;;;;16.99;100.00;100758.59;5089087;28;20197;-80
2021/09/09 00:07:03;;;;;;;8.85;7.95;;;;;;;17.10;100.00;100754.47;5075550;28;20223;-80
2021/09/09 00:09:31;;;;;;;9.80;8.80;;;;;;;17.04;100.00;100751.03;5056037;28;20203;-83
2021/09/09 00:11:57;;;;;;;9.18;8.15;;;;;;;16.97;100.00;100750.66;5091582;28;20226;-81
2021/09/09 00:14:25;;;;;;;9.73;8.43;;;;;;;17.01;100.00;100750.84;5057508;28;20179;-80
2021/09/09 00:16:54;;;;;;;9.27;8.32;;;;;;;17.01;100.00;100742.63;5060161;28;20234;-78
2021/09/09 00:19:20;;;;;;;9.40;8.50;;;;;;;16.90;100.00;100738.50;5071034;28;20221;-81
2021/09/09 00:21:51;;;;;;;9.52;8.50;;;;;;;16.93;100.00;100737.88;5078957;28;20222;-82
2021/09/09 00:24:17;;;;;;;8.98;8.07;;;;;;;16.81;100.00;100742.31;5074583;28;20190;-79
2021/09/09 00:26:43;;;;;;;9.02;8.18;;;;;;;16.75;100.00;100738.88;5069280;28;20212;-79
2021/09/09 00:29:11;;;;;;;9.73;8.27;;;;;;;16.74;100.00;100740.00;5055520;28;20199;-79
2021/09/09 00:31:39;;;;;;;10.20;9.20;;;;;;;16.70;100.00;100724.47;5051696;28;20216;-82
2021/09/09 00:34:10;;;;;;;10.05;9.05;;;;;;;16.59;100.00;100732.13;5035369;28;20208;-82
2021/09/09 00:36:41;;;;;;;9.85;8.95;;;;;;;16.51;100.00;100728.50;5088307;28;20241;-81
2021/09/09 00:39:09;;;;;;;9.18;8.27;;;;;;;16.58;100.00;100730.50;5053213;28;20183;-82
2021/09/09 00:41:35;;;;;;;9.70;8.70;;;;;;;16.50;100.00;100727.69;5085590;28;20250;-79
2021/09/09 00:44:03;;;;;;;10.07;9.05;;;;;;;16.39;100.00;100736.44;5057141;28;20257;-78
2021/09/09 00:46:31;;;;;;;10.00;9.00;;;;;;;16.43;100.00;100726.50;5040954;28;20222;-80
2021/09/09 00:48:59;;;;;;;9.85;8.77;;;;;;;16.43;100.00;100721.00;5042451;28;20181;-80
2021/09/09 00:51:27;;;;;;;11.47;9.20;;;;;;;16.43;100.00;100729.25;5073786;28;20238;-80
2021/09/09 00:53:53;;;;;;;10.73;9.50;;;;;;;16.37;100.00;100733.19;5042078;28;20183;-80
2021/09/09 00:56:18;;;;;;;10.00;9.02;;;;;;;16.39;100.00;100722.72;5074749;28;20236;-80
2021/09/09 00:58:46;;;;;;;10.27;9.23;;;;;;;16.40;100.00;100724.38;5070988;28;20251;-82
2021/09/09 01:01:14;;;;;;;10.82;9.38;;;;;;;16.36;100.00;100720.63;5022545;28;20235;-80
2021/09/09 01:03:42;;;;;;;11.68;8.98;;;;;;;16.35;100.00;100728.00;5046576;28;20183;-80
2021/09/09 01:06:10;;;;;;;10.98;9.85;;;;;;;16.33;100.00;100721.22;5053624;28;20211;-79
2021/09/09 01:08:35;;;;;;;9.75;8.85;;;;;;;16.30;100.00;100716.34;5049138;28;20167;-79
2021/09/09 01:11:01;;;;;;;10.07;9.00;;;;;;;16.28;100.00;100719.41;5036833;28;20219;-80
2021/09/09 01:13:29;;;;;;;10.45;9.45;;;;;;;16.29;100.00;100720.22;5041792;28;20572;-82
2021/09/09 01:15:54;;;;;;;11.05;9.45;;;;;;;16.30;100.00;100716.34;5036698;28;20231;-79
2021/09/09 01:18:24;;;;;;;10.35;9.35;;;;;;;16.27;100.00;100719.72;5065847;28;20556;-79
2021/09/09 01:20:52;;;;;;;11.65;9.68;;;;;;;16.30;100.00;100721.81;5055246;28;20214;-78
2021/09/09 01:23:20;;;;;;;11.85;9.88;;;;;;;16.30;100.00;100717.19;5068105;28;20187;-80
2021/09/09 01:25:46;;;;;;;10.70;9.60;;;;;;;16.31;100.00;100718.78;5048583;28;20303;-79
2021/09/09 01:28:13;;;;;;;10.85;9.75;;;;;;;16.30;100.00;100716.34;5037794;28;20641;-80
2021/09/09 01:30:41;;;;;;;10.60;9.52;;;;;;;16.35;100.00;100719.78;5052830;28;20223;-79
2021/09/09 01:33:12;;;;;;;11.50;10.40;;;;;;;16.35;100.00;100708.00;5074097;28;20653;-79
2021/09/09 01:35:40;;;;;;;11.40;10.30;;;;;;;16.29;100.00;100709.25;5039844;28;20585;-78
2021/09/09 01:38:18;;;;;;;13.80;10.48;;;;;;;16.21;100.00;100713.53;5072927;28;20270;-79
2021/09/09 01:40:45;;;;;;;11.05;9.95;;;;;;;16.21;100.00;100710.00;5056935;28;20245;-82
2021/09/09 01:43:11;;;;;;;11.02;9.93;;;;;;;16.16;100.00;100707.31;5041001;28;20186;-79
2021/09/09 01:45:36;;;;;;;11.00;9.90;;;;;;;16.15;100.00;100704.88;5039692;28;20294;-78
2021/09/09 01:48:02;;;;;;;11.07;9.98;;;;;;;16.20;100.00;100713.84;5052548;28;20200;-81
2021/09/09 01:50:33;;;;;;;11.43;10.20;;;;;;;16.15;100.00;100705.69;5020549;28;20310;-79
2021/09/09 01:52:58;;;;;;;11.98;10.77;;;;;;;16.17;100.00;100711.66;5058135;28;20185;-80
2021/09/09 01:55:26;;;;;;;11.50;10.48;;;;;;;16.21;100.00;100696.28;5038944;28;20202;-81
2021/09/09 01:57:56;;;;;;;13.50;10.75;;;;;;;16.18;100.00;100702.38;5040267;28;20206;-79
2021/09/09 02:00:25;;;;;;;12.30;11.00;;;;;;;16.25;100.00;100691.81;5060110;28;20211;-80
2021/09/09 02:02:51;;;;;;;12.27;10.70;;;;;;;16.19;100.00;100699.34;5058531;28;20183;-79
2021/09/09 02:05:16;;;;;;;12.55;10.80;;;;;;;16.16;100.00;100696.34;5060104;28;20205;-80
2021/09/09 02:07:42;;;;;;;12.57;10.15;;;;;;;16.20;100.00;100694.66;5060550;28;20194;-79
2021/09/09 02:10:10;;;;;;;11.68;10.57;;;;;;;16.23;100.00;100699.53;5075369;28;20211;-79
2021/09/09 02:12:36;;;;;;;12.07;10.82;;;;;;;16.23;100.00;100689.38;5074380;28;20198;-77
2021/09/09 02:15:02;;;;;;;12.35;10.52;;;;;;;16.23;100.00;100691.31;5057652;28;20179;-78
2021/09/09 02:17:30;;;;;;;12.10;10.90;;;;;;;16.16;100.00;100699.09;5063012;28;20222;-80
2021/09/09 02:19:55;;;;;;;12.02;10.43;;;;;;;16.19;100.00;100688.38;5083488;28;20206;-80
2021/09/09 02:22:25;;;;;;;11.82;10.63;;;;;;;16.16;100.00;100688.13;5065818;28;20462;-82
2021/09/09 02:24:51;;;;;;;12.00;10.90;;;;;;;16.18;100.00;100678.50;5072534;28;20251;-79
2021/09/09 02:27:17;;;;;;;12.20;10.98;;;;;;;16.16;100.00;100676.38;5057860;28;20231;-79
2021/09/09 02:29:50;;;;;;;12.55;11.35;;;;;;;16.15;100.00;100677.47;5022265;28;20212;-79
2021/09/09 02:32:18;;;;;;;12.32;11.13;;;;;;;16.19;100.00;100684.81;5005574;28;20230;-79
2021/09/09 02:34:43;;;;;;;12.43;11.18;;;;;;;16.19;100.00;100682.09;5032073;28;20199;-79
2021/09/09 02:37:11;;;;;;;12.55;11.25;;;;;;;16.12;100.00;100681.66;5036401;28;20227;-78
2021/09/09 02:39:46;;;;;;;13.38;12.02;;;;;;;16.12;100.00;100678.91;5049829;28;20207;-79
2021/09/09 02:42:12;;;;;;;12.82;11.43;;;;;;;16.12;100.00;100680.84;5058155;28;20306;-78
2021/09/09 02:44:37;;;;;;;12.93;11.07;;;;;;;16.06;100.00;100677.41;5075196;28;20179;-79
2021/09/09 02:47:06;;;;;;;12.73;11.50;;;;;;;16.13;100.00;100666.81;5056963;28;20231;-78
2021/09/09 02:49:31;;;;;;;14.05;10.95;;;;;;;16.03;100.00;100666.25;5056752;28;20213;-78
2021/09/09 02:51:57;;;;;;;15.25;11.88;;;;;;;16.15;100.00;100663.75;5057066;28;20215;-79
2021/09/09 02:54:22;;;;;;;12.60;11.30;;;;;;;16.14;100.00;100667.66;5042069;28;20188;-79
2021/09/09 02:56:50;;;;;;;13.25;11.63;;;;;;;16.14;100.00;100662.97;5052769;28;20227;-79
2021/09/09 02:59:18;;;;;;;14.07;12.55;;;;;;;16.11;100.00;100651.81;5060556;28;20501;-78
2021/09/09 03:01:43;;;;;;;13.30;12.00;;;;;;;16.05;100.00;100653.03;5039775;28;20610;-79
2021/09/09 03:04:09;;;;;;;12.40;11.18;;;;;;;16.09;100.00;100649.38;5056230;28;20189;-78
2021/09/09 03:06:37;;;;;;;12.27;11.10;;;;;;;16.11;100.00;100649.88;5055954;28;20223;-78
2021/09/09 03:09:05;;;;;;;12.77;11.52;;;;;;;16.01;100.00;100636.41;5036049;28;20188;-80
2021/09/09 03:11:36;;;;;;;13.75;12.32;;;;;;;15.98;100.00;100637.00;5035904;28;20231;-79
2021/09/09 03:14:03;;;;;;;13.60;11.80;;;;;;;16.07;100.00;100632.41;5055601;28;20230;-78
2021/09/09 03:16:34;;;;;;;14.20;12.77;;;;;;;16.01;100.00;100630.91;5056845;28;20897;-77
2021/09/09 03:19:04;;;;;;;13.77;12.38;;;;;;;16.04;100.00;100630.28;5056969;28;20556;-79
2021/09/09 03:21:34;;;;;;;15.38;12.43;;;;;;;16.07;100.00;100629.69;5055979;28;20223;-79
2021/09/09 03:24:02;;;;;;;14.35;12.57;;;;;;;16.05;100.00;100626.44;5056492;28;20189;-80
2021/09/09 03:26:32;;;;;;;14.32;12.93;;;;;;;16.01;100.00;100619.97;5060538;28;20211;-79
2021/09/09 03:28:58;;;;;;;13.85;12.02;;;;;;;15.99;100.00;100621.41;5078081;28;20210;-79
2021/09/09 03:31:24;;;;;;;14.83;12.47;;;;;;;15.94;100.00;100614.09;5076150;28;20230;-79
2021/09/09 03:33:51;;;;;;;14.20;12.70;;;;;;;15.94;100.00;100608.59;5074923;28;20191;-80
2021/09/09 03:36:17;;;;;;;13.90;12.50;;;;;;;15.94;100.00;100608.59;5026196;28;20254;-78
2021/09/09 03:38:43;;;;;;;14.48;12.98;;;;;;;15.90;100.00;100613.09;5052917;28;20186;-80
2021/09/09 03:41:13;;;;;;;14.68;13.18;;;;;;;15.86;100.00;100609.34;5057507;28;20219;-79
2021/09/09 03:43:38;;;;;;;15.07;13.50;;;;;;;15.87;100.00;100607.41;5075289;28;20198;-80
2021/09/09 03:46:06;;;;;;;14.90;13.30;;;;;;;15.89;100.00;100607.91;5074011;28;20214;-79
2021/09/09 03:48:34;;;;;;;14.70;13.20;;;;;;;15.90;100.00;100615.81;5058387;28;20179;-82
2021/09/09 03:51:02;;;;;;;14.97;13.37;;;;;;;15.84;100.00;100608.84;5059336;28;20707;-80
2021/09/09 03:53:28;;;;;;;15.07;13.53;;;;;;;15.87;100.00;100608.22;5043987;28;20183;-80
2021/09/09 03:55:54;;;;;;;16.60;13.17;;;;;;;15.88;100.00;100604.38;5057929;28;20223;-81
2021/09/09 03:58:19;;;;;;;15.48;13.90;;;;;;;15.92;100.00;100608.09;5041821;28;20554;-79
2021/09/09 04:00:47;;;;;;;15.17;13.57;;;;;;;15.80;100.00;100605.09;5040044;28;20256;-81
2021/09/09 04:03:15;;;;;;;15.37;12.80;;;;;;;15.82;100.00;100607.50;5076132;28;20221;-79
2021/09/09 04:05:44;;;;;;;15.25;13.65;;;;;;;15.65;100.00;100596.38;5058165;28;20214;-80
2021/09/09 04:08:09;;;;;;;14.80;13.30;;;;;;;15.71;100.00;100602.56;5037119;28;20202;-79
2021/09/09 04:10:39;;;;;;;13.65;12.23;;;;;;;15.60;100.00;100606.63;5056231;28;20231;-81
2021/09/09 04:13:07;;;;;;;14.27;12.13;;;;;;;15.60;100.00;100601.97;5056652;28;20252;-81
2021/09/09 04:15:35;;;;;;;15.82;13.13;;;;;;;15.61;100.00;100602.78;5049070;28;20235;-78
2021/09/09 04:18:01;;;;;;;14.35;12.95;;;;;;;15.41;100.00;100597.72;5073126;28;20179;-80
2021/09/09 04:20:29;;;;;;;15.07;13.47;;;;;;;15.52;100.00;100593.66;5073606;28;20233;-80
2021/09/09 04:22:54;;;;;;;13.85;12.45;;;;;;;15.57;100.00;100591.63;5075498;28;20190;-78
2021/09/09 04:25:20;;;;;;;13.65;12.32;;;;;;;15.58;100.00;100592.44;5074717;28;20179;-79
2021/09/09 04:27:48;;;;;;;14.60;13.10;;;;;;;15.57;100.00;100586.16;5076239;28;20644;-80
2021/09/09 04:30:16;;;;;;;14.25;12.85;;;;;;;15.59;100.00;100583.13;5059802;28;20202;-78
2021/09/09 04:32:44;;;;;;;16.23;13.75;;;;;;;15.50;100.00;100582.22;5037626;28;20175;-78
2021/09/09 04:35:13;;;;;;;15.05;13.48;;;;;;;15.39;100.00;100580.00;5061087;28;20168;-79
2021/09/09 04:37:38;;;;;;;14.05;12.75;;;;;;;15.35;100.00;100581.69;5064830;28;20653;-80
2021/09/09 04:40:07;;;;;;;15.63;13.80;;;;;;;15.15;100.00;100588.41;5063429;28;20202;-78
2021/09/09 04:42:35;;;;;;;14.55;13.15;;;;;;;15.00;100.00;100590.59;5051549;28;20178;-78
2021/09/09 04:45:06;;;;;;;15.02;13.50;;;;;;;14.97;100.00;100587.66;5042457;28;20186;-78
2021/09/09 04:47:36;;;;;;;15.88;14.35;;;;;;;15.25;100.00;100585.47;5064176;28;20212;-78
2021/09/09 04:50:05;;;;;;;16.05;14.38;;;;;;;15.15;100.00;100582.94;5080554;28;20203;-78
2021/09/09 04:52:30;;;;;;;15.50;13.90;;;;;;;15.32;100.00;100576.84;5075107;28;20656;-79
2021/09/09 04:54:58;;;;;;;15.20;13.80;;;;;;;15.41;100.00;100575.84;5070385;28;20198;-77
2021/09/09 04:57:23;;;;;;;17.60;14.70;;;;;;;15.38;100.00;100573.69;5072125;28;20255;-76
2021/09/09 04:59:49;;;;;;;15.33;13.83;;;;;;;15.39;100.00;100573.41;5042731;28;20331;-76
2021/09/09 05:02:14;;;;;;;14.85;13.35;;;;;;;15.31;100.00;100576.06;5042108;28;20225;-76
2021/09/09 05:04:40;;;;;;;15.32;13.85;;;;;;;15.37;100.00;100566.63;5074239;28;20195;-77
2021/09/09 05:07:10;;;;;;;16.90;14.35;;;;;;;15.32;100.00;100572.19;5042139;28;20207;-78
2021/09/09 05:09:38;;;;;;;15.88;14.27;;;;;;;15.30;100.00;100568.94;5039021;28;20222;-78
2021/09/09 05:12:09;;;;;;;15.80;14.20;;;;;;;15.29;100.00;100566.50;5048148;28;20753;-78
2021/09/09 05:14:37;;;;;;;15.47;13.87;;;;;;;15.33;100.00;100573.81;5055695;28;20187;-77
2021/09/09 05:17:07;;;;;;;17.13;15.00;;;;;;;15.31;100.00;100564.28;5071645;28;20222;-75
2021/09/09 05:19:33;;;;;;;17.60;14.80;;;;;;;15.40;100.00;100564.09;5056913;28;20658;-74
2021/09/09 05:22:02;;;;;;;17.07;15.03;;;;;;;15.42;100.00;100566.53;5066756;28;20223;-73
2021/09/09 05:24:27;;;;;;;15.70;14.10;;;;;;;15.35;100.00;100555.16;5064742;28;20229;-74
2021/09/09 05:26:57;;;;;;;15.97;14.37;;;;;;;15.49;100.00;100564.16;5046130;28;20423;-73
2021/09/09 05:29:28;;;;;;;17.73;14.20;;;;;;;15.55;100.00;100560.22;5064041;28;20190;-77
2021/09/09 05:31:56;;;;;;;15.53;13.93;;;;;;;15.55;100.00;100555.53;5069162;28;20218;-77
2021/09/09 05:34:21;;;;;;;15.48;13.98;;;;;;;15.57;100.00;100564.25;5052688;28;20187;-79
2021/09/09 05:36:47;;;;;;;15.52;13.93;;;;;;;15.67;100.00;100560.47;5053305;28;20725;-78
2021/09/09 05:39:13;;;;;;;15.43;13.93;;;;;;;15.72;100.00;100560.38;5074204;28;20192;-79
2021/09/09 05:41:38;;;;;;;14.95;13.43;;;;;;;15.79;100.00;100556.91;5055215;28;20218;-78
2021/09/09 05:44:06;;;;;;;15.60;14.10;;;;;;;15.87;100.00;100553.41;5074337;28;20558;-79
2021/09/09 05:46:36;;;;;;;14.40;12.90;;;;;;;15.98;100.00;100554.81;5042026;28;20214;-80
2021/09/09 05:49:04;;;;;;;15.00;13.50;;;;;;;16.05;100.00;100544.22;5056999;28;20187;-79
2021/09/09 05:51:30;;;;;;;14.40;13.00;;;;;;;16.06;100.00;100551.34;5041118;28;20234;-78
2021/09/09 05:54:05;;;;;;;14.35;12.85;;;;;;;16.16;100.00;100545.59;5075959;28;20179;-79
2021/09/09 05:56:31;;;;;;;14.70;13.20;;;;;;;16.14;100.00;100547.84;5041559;28;20333;-79
2021/09/09 05:59:00;;;;;;;14.20;12.68;;;;;;;16.30;100.00;100544.47;5075556;28;20183;-77
2021/09/09 06:01:30;;;;;;;14.40;13.00;;;;;;;16.30;100.00;100547.19;5062934;28;20230;-80
2021/09/09 06:03:56;;;;;;;13.82;12.40;;;;;;;16.50;100.00;100548.59;5041525;28;20183;-78
2021/09/09 06:06:22;;;;;;;14.50;12.98;;;;;;;16.26;100.00;100556.34;5024979;28;20236;-79
2021/09/09 06:08:51;;;;;;;14.13;12.77;;;;;;;16.42;100.00;100554.84;5057936;28;20183;-78
2021/09/09 06:11:16;;;;;;;14.60;13.10;;;;;;;16.61;100.00;100554.34;5075163;28;20259;-78
2021/09/09 06:13:44;;;;;;;13.95;12.57;;;;;;;16.67;100.00;100553.06;5060281;28;20186;-79
2021/09/09 06:16:10;;;;;;;14.43;13.02;;;;;;;16.78;100.00;100548.13;5026117;28;20248;-78
2021/09/09 06:18:41;;;;;;;15.10;12.85;;;;;;;16.83;100.00;100554.31;5075724;28;20256;-77
2021/09/09 06:21:09;;;;;;;14.68;13.05;;;;;;;16.90;100.00;100545.59;5076008;28;20225;-79
2021/09/09 06:23:37;;;;;;;14.75;12.23;;;;;;;16.92;100.00;100557.88;5075371;28;20183;-79
2021/09/09 06:26:03;;;;;;;14.15;12.65;;;;;;;17.03;100.00;100542.75;5021429;28;20645;-77
2021/09/09 06:28:31;;;;;;;17.30;12.98;;;;;;;17.13;100.00;100545.22;5051531;28;20187;-78
2021/09/09 06:30:56;;;;;;;15.75;12.38;;;;;;;17.21;100.00;100552.69;5041164;28;20230;-78
2021/09/09 06:33:24;;;;;;;15.27;12.68;;;;;;;17.31;100.00;100546.91;5030254;28;20174;-78
2021/09/09 06:35:50;;;;;;;13.35;11.95;;;;;;;17.09;100.00;100550.53;5021025;28;20604;-80
2021/09/09 06:38:15;;;;;;;12.85;11.65;;;;;;;17.29;100.00;100544.50;5040981;28;20186;-77
2021/09/09 06:40:41;;;;;;;14.18;12.30;;;;;;;17.51;100.00;100542.47;5057076;28;20700;-77
2021/09/09 06:43:09;;;;;;;13.23;11.82;;;;;;;17.78;100.00;100533.91;5056927;28;20179;-79
2021/09/09 06:45:39;;;;;;;13.20;11.75;;;;;;;17.94;100.00;100541.38;5075169;28;20215;-77
2021/09/09 06:48:05;;;;;;;13.52;11.38;;;;;;;18.04;100.00;100540.22;5077417;28;20688;-80
2021/09/09 06:50:33;;;;;;;12.95;11.55;;;;;;;17.89;100.00;100536.03;5097970;28;20203;-79
2021/09/09 06:52:59;;;;;;;12.63;11.38;;;;;;;18.10;100.00;100533.50;5065209;28;20189;-80
2021/09/09 06:55:27;;;;;;;12.85;11.60;;;;;;;18.22;100.00;100535.25;5057732;28;20722;-81
2021/09/09 06:57:58;;;;;;;12.10;10.77;;;;;;;18.33;100.00;100539.28;5052569;28;20186;-79
2021/09/09 07:00:24;;;;;;;12.18;11.02;;;;;;;18.44;100.00;100539.75;5077447;28;20916;-80
2021/09/09 07:02:50;;;;;;;12.73;11.10;;;;;;;18.36;100.00;100544.13;5043136;28;20190;-78
2021/09/09 07:05:15;;;;;;;12.70;11.38;;;;;;;18.52;100.00;100553.50;5057676;28;20175;-78
2021/09/09 07:07:41;;;;;;;12.48;10.23;;;;;;;18.71;100.00;100551.19;5055861;28;20171;-78
2021/09/09 07:10:08;;;;;;;11.82;10.63;;;;;;;18.76;100.00;100545.50;5071456;28;20205;-78
2021/09/09 07:12:33;;;;;;;13.95;10.48;;;;;;;18.92;100.00;100559.22;5072594;28;20254;-77
2021/09/09 07:15:02;;;;;;;12.90;10.25;;;;;;;18.93;100.00;100544.28;5057975;28;20215;-79
2021/09/09 07:17:28;;;;;;;12.95;11.00;;;;;;;18.64;100.00;100553.63;5038849;28;20249;-77
2021/09/09 07:19:53;;;;;;;19.25;12.60;;;;;;;18.99;100.00;100556.78;5055538;28;20751;-78
2021/09/09 07:22:19;;;;;;;12.88;10.65;;;;;;;19.01;100.00;100551.75;5071827;28;20222;-77
2021/09/09 07:24:50;;;;;;;12.18;10.88;;;;;;;19.00;100.00;100550.13;5039768;28;20179;-78
2021/09/09 07:27:16;;;;;;;10.88;9.77;;;;;;;19.26;100.00;100542.56;5056877;28;20721;-78
2021/09/09 07:29:44;;;;;;;13.15;10.68;;;;;;;19.42;100.00;100533.41;5040666;28;20207;-79
2021/09/09 07:32:13;;;;;;;11.60;10.35;;;;;;;19.60;100.00;100536.88;5040634;28;20225;-80
2021/09/09 07:34:43;;;;;;;11.55;10.45;;;;;;;19.54;100.00;100535.44;5073911;28;20228;-78
2021/09/09 07:37:12;;;;;;;11.43;10.32;;;;;;;19.63;100.00;100528.72;5057695;28;20246;-79
2021/09/09 07:39:37;;;;;;;11.30;9.70;;;;;;;19.78;100.00;100522.63;5036144;28;20231;-78
2021/09/09 07:42:05;;;;;;;11.20;10.10;;;;;;;19.72;100.00;100523.97;5018927;28;20246;-77
2021/09/09 07:44:33;;;;;;;12.05;9.82;;;;;;;19.94;100.00;100518.94;5051738;28;20184;-79
2021/09/09 07:47:05;;;;;;;11.55;10.23;;;;;;;19.83;100.00;100527.97;5035118;28;20265;-78
2021/09/09 07:49:30;;;;;;;11.30;10.20;;;;;;;19.80;100.00;100531.38;5054998;28;20293;-79
2021/09/09 07:51:56;;;;;;;10.80;9.50;;;;;;;20.09;100.00;100534.88;5054664;28;20223;-77
2021/09/09 07:54:22;;;;;;;10.57;9.48;;;;;;;20.14;100.00;100526.41;5072640;28;20191;-78
2021/09/09 07:56:48;;;;;;;10.00;9.07;;;;;;;20.37;100.00;100522.16;5070988;28;20218;-78
2021/09/09 07:59:16;;;;;;;10.15;8.68;;;;;;;20.48;100.00;100522.19;5070850;28;20187;-77
2021/09/09 08:01:46;;;;;;;9.82;8.75;;;;;;;20.66;100.00;100515.38;5070328;28;20223;-78
2021/09/09 08:04:17;;;;;;;9.55;8.65;;;;;;;20.81;100.00;100517.47;5056258;28;20179;-78
2021/09/09 08:06:45;;;;;;;11.55;9.52;;;;;;;20.90;100.00;100513.44;5055924;28;20218;-77
2021/09/09 08:09:11;;;;;;;13.05;9.05;;;;;;;21.15;100.00;100515.06;5054374;28;20300;-78
2021/09/09 08:11:39;;;;;;;10.43;9.00;;;;;;;21.21;100.00;100518.41;5056884;28;20250;-78
2021/09/09 08:14:04;;;;;;;9.75;8.82;;;;;;;21.30;100.00;100517.97;5058351;28;20191;-79
2021/09/09 08:16:32;;;;;;;9.75;8.38;;;;;;;21.43;100.00;100516.84;5044883;28;20241;-78
2021/09/09 08:19:00;;;;;;;9.20;8.25;;;;;;;21.56;100.00;100518.44;5059523;28;20179;-78
2021/09/09 08:21:26;;;;;;;12.77;8.57;;;;;;;21.38;100.00;100519.78;5025253;28;20219;-78
2021/09/09 08:23:51;;;;;;;10.30;8.90;;;;;;;21.66;100.00;100523.47;5075342;28;20649;-79
2021/09/09 08:26:17;;;;;;;12.80;8.55;;;;;;;21.64;100.00;100525.78;5041886;28;20215;-78
2021/09/09 08:28:45;;;;;;;8.88;7.57;;;;;;;21.86;100.00;100509.50;5070804;28;20190;-78
2021/09/09 08:31:11;;;;;;;9.30;8.40;;;;;;;22.12;98.69;100521.75;5038514;28;20231;-78
2021/09/09 08:33:42;;;;;;;10.57;7.80;;;;;;;22.14;99.90;100521.38;5055003;28;20621;-77
2021/09/09 08:36:07;;;;;;;9.32;8.43;;;;;;;22.20;97.71;100515.28;5032556;28;20723;-77
2021/09/09 08:38:33;;;;;;;8.90;8.00;;;;;;;22.12;95.07;100521.75;5018307;28;20183;-80
2021/09/09 08:41:02;;;;;;;9.57;8.07;;;;;;;22.28;94.63;100517.09;5054130;28;20218;-77
2021/09/09 08:43:30;;;;;;;8.20;7.40;;;;;;;22.46;92.69;100516.44;5038103;28;20186;-78
2021/09/09 08:45:58;;;;;;;9.00;8.05;;;;;;;22.57;93.16;100519.50;5070209;28;20624;-78
2021/09/09 08:48:26;;;;;;;9.65;7.90;;;;;;;22.54;90.75;100514.66;5053888;28;20191;-77
2021/09/09 08:50:52;;;;;;;9.80;8.38;;;;;;;22.95;90.84;100518.59;5053448;28;20219;-77
2021/09/09 08:53:18;;;;;;;10.27;7.60;;;;;;;23.14;90.92;100512.34;5063789;28;20239;-78
2021/09/09 08:55:47;;;;;;;10.73;7.95;;;;;;;23.33;90.11;100527.06;5061336;28;20714;-78
2021/09/09 08:58:13;;;;;;;8.48;7.68;;;;;;;23.32;88.16;100517.97;5054519;28;20610;-78
2021/09/09 09:00:38;;;;;;;8.38;7.32;;;;;;;23.38;85.42;100513.75;5040817;28;20223;-77
2021/09/09 09:03:06;;;;;;;8.50;7.60;;;;;;;23.50;85.79;100512.81;5018260;28;20191;-79
2021/09/09 09:05:37;;;;;;;8.50;7.45;;;;;;;23.61;82.89;100512.75;5059206;28;20348;-77
2021/09/09 09:08:04;;;;;;;8.85;7.93;;;;;;;23.70;84.97;100510.59;5053997;28;20175;-79
2021/09/09 09:10:30;;;;;;;8.23;7.47;;;;;;;23.63;82.78;100510.41;5056954;28;20687;-80
2021/09/09 09:12:58;;;;;;;9.02;8.02;;;;;;;23.79;84.84;100519.53;5038249;28;20186;-79
2021/09/09 09:15:32;;;;;;;10.20;7.90;;;;;;;23.86;85.06;100511.31;5069548;28;20190;-80
2021/09/09 09:18:01;;;;;;;8.20;7.40;;;;;;;24.02;82.23;100501.78;5020923;28;20202;-80
2021/09/09 09:20:36;;;;;;;7.70;6.88;;;;;;;24.11;79.87;100504.34;5070761;28;20233;-78
2021/09/09 09:23:21;;;;;;;7.90;7.20;;;;;;;24.20;77.80;100502.16;5070956;28;20207;-79
2021/09/09 09:25:56;;;;;;;8.80;6.78;;;;;;;24.52;77.13;100494.13;5020589;28;20221;-78
2021/09/09 09:28:47;;;;;;;7.57;6.88;;;;;;;24.68;73.84;100497.59;5038175;28;20186;-78
2021/09/09 09:31:20;;;;;;;7.65;6.65;;;;;;;24.89;73.35;100492.41;5070865;28;20218;-79
2021/09/09 09:33:55;;;;;;;7.60;6.50;;;;;;;24.88;74.53;100488.81;5039368;28;20243;-80
2021/09/09 09:36:54;;;;;;;9.02;6.85;;;;;;;24.49;72.01;100494.06;5054895;28;20237;-77
2021/09/09 09:39:22;;;;;;;8.55;6.97;;;;;;;24.57;75.89;100485.47;5065824;28;20206;-78
2021/09/09 09:41:53;;;;;;;9.05;6.72;;;;;;;24.69;72.16;100490.03;5054435;28;20219;-78
2021/09/09 09:44:32;;;;;;;8.23;6.30;;;;;;;24.81;69.62;100485.13;5070228;28;20198;-78
2021/09/09 09:47:10;;;;;;;11.60;6.75;;;;;;;24.89;68.40;100472.94;5054204;28;20213;-78
2021/09/09 09:49:40;;;;;;;8.27;6.60;;;;;;;24.90;65.99;100471.78;5070568;28;20203;-78
2021/09/09 09:52:06;;;;;;;8.35;6.40;;;;;;;25.05;66.20;100474.44;5021727;28;20222;-79
2021/09/09 09:54:36;;;;;;;8.82;6.95;;;;;;;25.01;63.91;100470.81;5054012;28;20612;-77
2021/09/09 09:57:04;;;;;;;7.25;6.55;;;;;;;25.25;67.70;100468.41;5069583;28;20218;-78
2021/09/09 09:59:30;;;;;;;8.52;6.60;;;;;;;25.44;65.63;100471.13;5052909;28;20183;-78
2021/09/09 10:01:56;;;;;;;7.55;6.50;;;;;;;25.64;64.25;100469.84;5052642;28;20241;-78
2021/09/09 10:04:27;;;;;;;8.18;6.53;;;;;;;25.60;63.11;100457.84;5053640;28;20751;-79
2021/09/09 10:06:56;;;;;;;7.28;6.57;;;;;;;25.92;61.56;100459.09;5053738;28;20214;-79
2021/09/09 10:09:21;;;;;;;7.65;6.43;;;;;;;25.75;64.74;100459.66;5054725;28;20199;-79
2021/09/09 10:11:54;;;;;;;7.30;6.50;;;;;;;25.90;63.31;100455.88;5055684;28;20225;-79
2021/09/09 10:14:21;;;;;;;6.82;6.22;;;;;;;26.14;61.69;100459.00;5037517;28;20560;-78
2021/09/09 10:16:49;;;;;;;7.82;6.20;;;;;;;26.27;57.54;100466.72;5036076;28;20268;-77
2021/09/09 10:19:25;;;;;;;6.80;5.95;;;;;;;26.08;57.92;100458.53;5054639;28;20197;-77
2021/09/09 10:21:53;;;;;;;6.25;5.65;;;;;;;25.93;53.86;100456.75;5036983;28;20249;-78
2021/09/09 10:24:31;;;;;;;6.82;5.68;;;;;;;26.16;54.04;100454.63;5041893;28;20202;-79
2021/09/09 10:27:19;;;;;;;8.02;6.00;;;;;;;26.00;53.84;100450.44;5074873;28;20207;-77
2021/09/09 10:29:54;;;;;;;7.95;5.93;;;;;;;26.22;54.94;100453.13;5056995;28;20203;-78
2021/09/09 10:32:29;;;;;;;7.40;6.18;;;;;;;26.25;54.10;100457.97;5041155;28;20405;-77
2021/09/09 10:35:19;;;;;;;7.38;6.00;;;;;;;26.47;51.14;100454.22;5074971;28;20594;-77
2021/09/09 10:37:49;;;;;;;5.70;5.20;;;;;;;26.74;53.08;100448.94;5073033;28;20225;-78
2021/09/09 10:40:29;;;;;;;7.28;5.40;;;;;;;26.98;48.96;100448.38;5023390;28;20671;-78
2021/09/09 10:43:12;;;;;;;7.72;5.60;;;;;;;27.10;48.90;100436.91;5075702;28;20614;-79
2021/09/09 10:45:41;;;;;;;8.23;5.82;;;;;;;26.99;51.12;100444.38;5025385;28;20842;-78
2021/09/09 10:48:08;;;;;;;6.53;5.60;;;;;;;27.07;49.29;100445.25;5074350;28;20187;-79
2021/09/09 10:50:36;;;;;;;9.10;5.43;;;;;;;27.01;46.23;100442.00;5073721;28;20223;-78
2021/09/09 10:53:12;;;;;;;5.38;4.88;;;;;;;27.32;45.87;100431.09;5056621;28;20183;-79
2021/09/09 10:55:43;;;;;;;9.40;5.28;;;;;;;27.03;44.40;100427.69;5024758;28;20218;-79
2021/09/09 10:58:25;;;;;;;8.90;4.97;;;;;;;26.88;45.22;100432.34;5041759;28;20183;-79
2021/09/09 11:01:02;;;;;;;5.63;4.97;;;;;;;27.05;44.67;100426.13;5083948;28;20233;-77
2021/09/09 11:03:48;;;;;;;5.82;5.22;;;;;;;27.09;46.14;100426.94;5059637;28;20191;-77
2021/09/09 11:06:15;;;;;;;6.75;4.70;;;;;;;27.01;42.62;100422.47;5056549;28;20223;-78
2021/09/09 11:08:42;;;;;;;7.47;5.00;;;;;;;27.19;43.32;100413.06;5034383;28;20236;-78
2021/09/09 11:11:29;;;;;;;5.50;5.00;;;;;;;27.34;44.07;100413.94;5036866;28;20239;-77
2021/09/09 11:14:04;;;;;;;7.35;4.88;;;;;;;27.46;43.71;100416.47;5035845;28;20211;-77
2021/09/09 11:16:31;;;;;;;6.18;4.90;;;;;;;27.72;42.94;100411.41;5051678;28;20612;-76